sensor_id;sensor_type;location;lat;lon;timestamp;P1;durP1;ratioP1;P2;durP2;ratioP2
20832;SDS011;56075;51.264;7.150;2022-10-20T00:01:16;12.40;;;4.60;;
20832;SDS011;56075;51.264;7.150;2022-10-20T00:03:49;10.80;;;5.07;;
20832;SDS011;56075;51.264;7.150;2022-10-20T00:08:55;10.82;;;4.80;;
20832;SDS011;56075;51.264;7.150;2022-10-20T00:11:28;10.45;;;5.20;;
20832;SDS011;56075;51.264;7.150;2022-10-20T00:14:00;9.95;;;4.45;;
20832;SDS011;56075;51.264;7.150;2022-10-20T00:16:34;12.43;;;5.15;;
20832;SDS011;56075;51.264;7.150;2022-10-20T00:19:06;12.55;;;5.53;;
20832;SDS011;56075;51.264;7.150;2022-10-20T00:21:37;12.80;;;4.88;;
20832;SDS011;56075;51.264;7.150;2022-10-20T00:24:09;14.68;;;4.93;;
20832;SDS011;56075;51.264;7.150;2022-10-20T00:26:40;14.50;;;5.05;;
20832;SDS011;56075;51.264;7.150;2022-10-20T00:29:11;10.13;;;5.03;;
20832;SDS011;56075;51.264;7.150;2022-10-20T00:31:43;10.02;;;4.95;;
20832;SDS011;56075;51.264;7.150;2022-10-20T00:34:14;12.27;;;5.25;;
20832;SDS011;56075;51.264;7.150;2022-10-20T00:36:45;10.93;;;4.85;;
20832;SDS011;56075;51.264;7.150;2022-10-20T00:39:17;11.20;;;4.78;;
20832;SDS011;56075;51.264;7.150;2022-10-20T00:41:48;9.95;;;5.13;;
20832;SDS011;56075;51.264;7.150;2022-10-20T00:49:51;8.88;;;4.93;;
20832;SDS011;56075;51.264;7.150;2022-10-20T00:52:24;10.82;;;4.68;;
20832;SDS011;56075;51.264;7.150;2022-10-20T00:54:55;12.13;;;5.30;;
20832;SDS011;56075;51.264;7.150;2022-10-20T00:57:28;9.77;;;4.85;;
20832;SDS011;56075;51.264;7.150;2022-10-20T01:00:01;13.02;;;5.57;;
20832;SDS011;56075;51.264;7.150;2022-10-20T01:02:34;12.18;;;4.68;;
20832;SDS011;56075;51.264;7.150;2022-10-20T01:05:06;10.02;;;5.20;;
20832;SDS011;56075;51.264;7.150;2022-10-20T01:07:38;9.05;;;4.88;;
20832;SDS011;56075;51.264;7.150;2022-10-20T01:10:09;11.38;;;5.38;;
20832;SDS011;56075;51.264;7.150;2022-10-20T01:12:52;10.25;;;4.93;;
20832;SDS011;56075;51.264;7.150;2022-10-20T01:18:02;9.60;;;4.47;;
20832;SDS011;56075;51.264;7.150;2022-10-20T01:23:53;11.98;;;5.43;;
20832;SDS011;56075;51.264;7.150;2022-10-20T01:32:43;12.98;;;5.50;;
20832;SDS011;56075;51.264;7.150;2022-10-20T01:35:24;12.50;;;5.38;;
20832;SDS011;56075;51.264;7.150;2022-10-20T01:40:52;13.68;;;5.47;;
20832;SDS011;56075;51.264;7.150;2022-10-20T01:43:32;11.07;;;5.35;;
20832;SDS011;56075;51.264;7.150;2022-10-20T01:46:07;10.05;;;5.47;;
20832;SDS011;56075;51.264;7.150;2022-10-20T01:48:41;10.48;;;5.15;;
20832;SDS011;56075;51.264;7.150;2022-10-20T01:51:13;10.23;;;4.95;;
20832;SDS011;56075;51.264;7.150;2022-10-20T01:53:44;9.45;;;4.53;;
20832;SDS011;56075;51.264;7.150;2022-10-20T01:56:17;8.82;;;4.88;;
20832;SDS011;56075;51.264;7.150;2022-10-20T01:59:02;11.13;;;5.35;;
20832;SDS011;56075;51.264;7.150;2022-10-20T02:02:17;8.98;;;4.88;;
20832;SDS011;56075;51.264;7.150;2022-10-20T02:07:59;11.38;;;4.53;;
20832;SDS011;56075;51.264;7.150;2022-10-20T02:10:38;12.52;;;4.78;;
20832;SDS011;56075;51.264;7.150;2022-10-20T02:13:21;14.35;;;4.53;;
20832;SDS011;56075;51.264;7.150;2022-10-20T02:15:57;7.45;;;4.45;;
20832;SDS011;56075;51.264;7.150;2022-10-20T02:18:33;8.90;;;4.35;;
20832;SDS011;56075;51.264;7.150;2022-10-20T02:21:10;9.48;;;4.43;;
20832;SDS011;56075;51.264;7.150;2022-10-20T02:23:43;8.40;;;4.45;;
20832;SDS011;56075;51.264;7.150;2022-10-20T02:26:18;7.32;;;4.10;;
20832;SDS011;56075;51.264;7.150;2022-10-20T02:28:53;9.20;;;4.80;;
20832;SDS011;56075;51.264;7.150;2022-10-20T02:31:28;9.07;;;4.18;;
20832;SDS011;56075;51.264;7.150;2022-10-20T02:34:00;7.82;;;4.63;;
20832;SDS011;56075;51.264;7.150;2022-10-20T02:36:35;8.18;;;4.30;;
20832;SDS011;56075;51.264;7.150;2022-10-20T02:39:11;7.95;;;4.47;;
20832;SDS011;56075;51.264;7.150;2022-10-20T02:41:42;8.25;;;3.65;;
20832;SDS011;56075;51.264;7.150;2022-10-20T02:44:14;10.35;;;4.22;;
20832;SDS011;56075;51.264;7.150;2022-10-20T02:46:45;12.52;;;4.60;;
20832;SDS011;56075;51.264;7.150;2022-10-20T02:49:16;8.68;;;4.10;;
20832;SDS011;56075;51.264;7.150;2022-10-20T02:51:49;10.10;;;4.68;;
20832;SDS011;56075;51.264;7.150;2022-10-20T02:54:21;10.18;;;4.38;;
20832;SDS011;56075;51.264;7.150;2022-10-20T02:56:52;9.50;;;4.18;;
20832;SDS011;56075;51.264;7.150;2022-10-20T02:59:23;8.27;;;4.85;;
20832;SDS011;56075;51.264;7.150;2022-10-20T03:01:54;10.82;;;4.78;;
20832;SDS011;56075;51.264;7.150;2022-10-20T03:04:26;8.07;;;4.15;;
20832;SDS011;56075;51.264;7.150;2022-10-20T03:06:57;9.48;;;3.83;;
20832;SDS011;56075;51.264;7.150;2022-10-20T03:09:28;9.43;;;4.18;;
20832;SDS011;56075;51.264;7.150;2022-10-20T03:12:00;7.63;;;4.07;;
20832;SDS011;56075;51.264;7.150;2022-10-20T03:14:32;7.82;;;4.32;;
20832;SDS011;56075;51.264;7.150;2022-10-20T03:17:03;8.25;;;4.47;;
20832;SDS011;56075;51.264;7.150;2022-10-20T03:19:35;8.27;;;4.35;;
20832;SDS011;56075;51.264;7.150;2022-10-20T03:22:06;9.10;;;4.72;;
20832;SDS011;56075;51.264;7.150;2022-10-20T03:24:37;11.27;;;4.40;;
20832;SDS011;56075;51.264;7.150;2022-10-20T03:27:09;11.07;;;4.88;;
20832;SDS011;56075;51.264;7.150;2022-10-20T03:29:40;6.90;;;4.10;;
20832;SDS011;56075;51.264;7.150;2022-10-20T03:32:11;7.60;;;4.13;;
20832;SDS011;56075;51.264;7.150;2022-10-20T03:34:42;8.88;;;4.10;;
20832;SDS011;56075;51.264;7.150;2022-10-20T03:37:14;8.05;;;4.57;;
20832;SDS011;56075;51.264;7.150;2022-10-20T03:39:45;9.15;;;4.45;;
20832;SDS011;56075;51.264;7.150;2022-10-20T03:42:16;8.05;;;4.43;;
20832;SDS011;56075;51.264;7.150;2022-10-20T03:44:48;8.27;;;4.53;;
20832;SDS011;56075;51.264;7.150;2022-10-20T03:47:19;9.82;;;4.88;;
20832;SDS011;56075;51.264;7.150;2022-10-20T03:49:50;7.47;;;4.10;;
20832;SDS011;56075;51.264;7.150;2022-10-20T03:52:22;7.63;;;4.03;;
20832;SDS011;56075;51.264;7.150;2022-10-20T03:54:53;9.40;;;4.70;;
20832;SDS011;56075;51.264;7.150;2022-10-20T03:57:24;8.80;;;4.22;;
20832;SDS011;56075;51.264;7.150;2022-10-20T03:59:55;8.73;;;4.55;;
20832;SDS011;56075;51.264;7.150;2022-10-20T04:02:29;9.73;;;4.72;;
20832;SDS011;56075;51.264;7.150;2022-10-20T04:05:03;11.00;;;4.80;;
20832;SDS011;56075;51.264;7.150;2022-10-20T04:07:35;7.47;;;4.43;;
20832;SDS011;56075;51.264;7.150;2022-10-20T04:10:07;8.20;;;4.40;;
20832;SDS011;56075;51.264;7.150;2022-10-20T04:12:39;12.80;;;4.45;;
20832;SDS011;56075;51.264;7.150;2022-10-20T04:15:10;10.13;;;4.43;;
20832;SDS011;56075;51.264;7.150;2022-10-20T04:17:42;7.15;;;4.00;;
20832;SDS011;56075;51.264;7.150;2022-10-20T04:20:13;7.68;;;4.03;;
20832;SDS011;56075;51.264;7.150;2022-10-20T04:22:45;8.55;;;4.10;;
20832;SDS011;56075;51.264;7.150;2022-10-20T04:25:16;11.00;;;4.30;;
20832;SDS011;56075;51.264;7.150;2022-10-20T04:27:47;7.20;;;3.92;;
20832;SDS011;56075;51.264;7.150;2022-10-20T04:30:19;7.63;;;4.03;;
20832;SDS011;56075;51.264;7.150;2022-10-20T04:32:50;7.13;;;4.10;;
20832;SDS011;56075;51.264;7.150;2022-10-20T04:35:21;10.07;;;4.30;;
20832;SDS011;56075;51.264;7.150;2022-10-20T04:37:53;10.55;;;3.92;;
20832;SDS011;56075;51.264;7.150;2022-10-20T04:40:24;9.10;;;4.10;;
20832;SDS011;56075;51.264;7.150;2022-10-20T04:42:57;7.20;;;3.88;;
20832;SDS011;56075;51.264;7.150;2022-10-20T04:45:30;11.13;;;4.13;;
20832;SDS011;56075;51.264;7.150;2022-10-20T04:48:03;8.20;;;3.88;;
20832;SDS011;56075;51.264;7.150;2022-10-20T04:50:34;9.18;;;3.90;;
20832;SDS011;56075;51.264;7.150;2022-10-20T04:53:12;6.15;;;3.70;;
20832;SDS011;56075;51.264;7.150;2022-10-20T04:55:43;8.35;;;4.20;;
20832;SDS011;56075;51.264;7.150;2022-10-20T04:58:24;8.82;;;4.10;;
20832;SDS011;56075;51.264;7.150;2022-10-20T05:01:00;6.85;;;3.97;;
20832;SDS011;56075;51.264;7.150;2022-10-20T05:03:38;6.43;;;3.53;;
20832;SDS011;56075;51.264;7.150;2022-10-20T05:06:11;6.93;;;3.90;;
20832;SDS011;56075;51.264;7.150;2022-10-20T05:08:52;8.02;;;3.97;;
20832;SDS011;56075;51.264;7.150;2022-10-20T05:11:25;7.78;;;3.92;;
20832;SDS011;56075;51.264;7.150;2022-10-20T05:13:57;6.53;;;3.50;;
20832;SDS011;56075;51.264;7.150;2022-10-20T05:16:29;8.30;;;3.90;;
20832;SDS011;56075;51.264;7.150;2022-10-20T05:19:00;8.90;;;4.18;;
20832;SDS011;56075;51.264;7.150;2022-10-20T05:21:31;8.43;;;4.30;;
20832;SDS011;56075;51.264;7.150;2022-10-20T05:24:03;8.65;;;3.97;;
20832;SDS011;56075;51.264;7.150;2022-10-20T05:26:35;10.93;;;4.72;;
20832;SDS011;56075;51.264;7.150;2022-10-20T05:29:07;8.82;;;3.97;;
20832;SDS011;56075;51.264;7.150;2022-10-20T05:31:41;9.40;;;4.55;;
20832;SDS011;56075;51.264;7.150;2022-10-20T05:34:13;8.02;;;4.35;;
20832;SDS011;56075;51.264;7.150;2022-10-20T05:36:44;9.40;;;4.43;;
20832;SDS011;56075;51.264;7.150;2022-10-20T05:39:16;8.40;;;4.40;;
20832;SDS011;56075;51.264;7.150;2022-10-20T05:41:47;10.60;;;4.70;;
20832;SDS011;56075;51.264;7.150;2022-10-20T05:44:18;8.63;;;4.18;;
20832;SDS011;56075;51.264;7.150;2022-10-20T05:46:50;8.65;;;4.47;;
20832;SDS011;56075;51.264;7.150;2022-10-20T05:49:21;9.68;;;4.95;;
20832;SDS011;56075;51.264;7.150;2022-10-20T05:51:53;11.75;;;4.75;;
20832;SDS011;56075;51.264;7.150;2022-10-20T05:54:24;7.43;;;4.25;;
20832;SDS011;56075;51.264;7.150;2022-10-20T05:56:55;8.02;;;4.35;;
20832;SDS011;56075;51.264;7.150;2022-10-20T05:59:26;10.05;;;4.35;;
20832;SDS011;56075;51.264;7.150;2022-10-20T06:01:57;8.30;;;4.47;;
20832;SDS011;56075;51.264;7.150;2022-10-20T06:04:29;9.70;;;4.43;;
20832;SDS011;56075;51.264;7.150;2022-10-20T06:07:01;12.88;;;4.63;;
20832;SDS011;56075;51.264;7.150;2022-10-20T06:09:33;12.35;;;4.38;;
20832;SDS011;56075;51.264;7.150;2022-10-20T06:12:04;9.25;;;4.85;;
20832;SDS011;56075;51.264;7.150;2022-10-20T06:14:36;7.60;;;4.50;;
20832;SDS011;56075;51.264;7.150;2022-10-20T06:17:07;11.63;;;5.30;;
20832;SDS011;56075;51.264;7.150;2022-10-20T06:19:39;11.00;;;5.03;;
20832;SDS011;56075;51.264;7.150;2022-10-20T06:22:10;10.65;;;5.00;;
20832;SDS011;56075;51.264;7.150;2022-10-20T06:24:41;8.48;;;4.43;;
20832;SDS011;56075;51.264;7.150;2022-10-20T06:27:12;12.35;;;4.80;;
20832;SDS011;56075;51.264;7.150;2022-10-20T06:29:43;10.82;;;5.07;;
20832;SDS011;56075;51.264;7.150;2022-10-20T06:32:15;11.18;;;4.68;;
20832;SDS011;56075;51.264;7.150;2022-10-20T06:34:49;10.48;;;5.07;;
20832;SDS011;56075;51.264;7.150;2022-10-20T06:37:20;11.73;;;5.43;;
20832;SDS011;56075;51.264;7.150;2022-10-20T06:39:52;9.02;;;4.82;;
20832;SDS011;56075;51.264;7.150;2022-10-20T06:42:23;17.10;;;5.43;;
20832;SDS011;56075;51.264;7.150;2022-10-20T06:44:57;10.23;;;5.15;;
20832;SDS011;56075;51.264;7.150;2022-10-20T06:47:29;12.07;;;5.60;;
20832;SDS011;56075;51.264;7.150;2022-10-20T06:50:00;10.13;;;4.75;;
20832;SDS011;56075;51.264;7.150;2022-10-20T06:52:32;10.63;;;5.18;;
20832;SDS011;56075;51.264;7.150;2022-10-20T06:55:03;12.82;;;5.47;;
20832;SDS011;56075;51.264;7.150;2022-10-20T06:57:35;14.25;;;5.18;;
20832;SDS011;56075;51.264;7.150;2022-10-20T07:00:06;11.65;;;5.55;;
20832;SDS011;56075;51.264;7.150;2022-10-20T07:02:38;10.25;;;4.53;;
20832;SDS011;56075;51.264;7.150;2022-10-20T07:05:09;10.43;;;5.45;;
20832;SDS011;56075;51.264;7.150;2022-10-20T07:07:41;9.52;;;4.95;;
20832;SDS011;56075;51.264;7.150;2022-10-20T07:10:12;9.80;;;5.55;;
20832;SDS011;56075;51.264;7.150;2022-10-20T07:12:43;9.98;;;4.82;;
20832;SDS011;56075;51.264;7.150;2022-10-20T07:15:14;14.48;;;5.85;;
20832;SDS011;56075;51.264;7.150;2022-10-20T07:17:45;10.90;;;5.55;;
20832;SDS011;56075;51.264;7.150;2022-10-20T07:20:18;10.70;;;5.30;;
20832;SDS011;56075;51.264;7.150;2022-10-20T07:22:49;11.48;;;5.38;;
20832;SDS011;56075;51.264;7.150;2022-10-20T07:25:20;11.43;;;5.28;;
20832;SDS011;56075;51.264;7.150;2022-10-20T07:27:53;9.32;;;4.90;;
20832;SDS011;56075;51.264;7.150;2022-10-20T07:30:24;11.82;;;5.35;;
20832;SDS011;56075;51.264;7.150;2022-10-20T07:32:55;10.63;;;5.70;;
20832;SDS011;56075;51.264;7.150;2022-10-20T07:35:28;9.93;;;4.80;;
20832;SDS011;56075;51.264;7.150;2022-10-20T07:38:00;10.57;;;5.50;;
20832;SDS011;56075;51.264;7.150;2022-10-20T07:40:32;9.45;;;4.57;;
20832;SDS011;56075;51.264;7.150;2022-10-20T07:43:03;9.98;;;5.00;;
20832;SDS011;56075;51.264;7.150;2022-10-20T07:45:34;11.02;;;4.47;;
20832;SDS011;56075;51.264;7.150;2022-10-20T07:48:05;11.23;;;4.90;;
20832;SDS011;56075;51.264;7.150;2022-10-20T07:50:39;11.75;;;4.82;;
20832;SDS011;56075;51.264;7.150;2022-10-20T07:53:11;9.82;;;4.55;;
20832;SDS011;56075;51.264;7.150;2022-10-20T07:55:42;9.73;;;4.80;;
20832;SDS011;56075;51.264;7.150;2022-10-20T07:58:15;8.70;;;4.57;;
20832;SDS011;56075;51.264;7.150;2022-10-20T08:00:46;11.85;;;4.95;;
20832;SDS011;56075;51.264;7.150;2022-10-20T08:03:17;10.60;;;4.20;;
20832;SDS011;56075;51.264;7.150;2022-10-20T08:05:48;7.38;;;4.65;;
20832;SDS011;56075;51.264;7.150;2022-10-20T08:08:20;8.57;;;4.75;;
20832;SDS011;56075;51.264;7.150;2022-10-20T08:10:51;8.73;;;4.35;;
20832;SDS011;56075;51.264;7.150;2022-10-20T08:13:25;9.75;;;5.15;;
20832;SDS011;56075;51.264;7.150;2022-10-20T08:15:58;9.93;;;4.32;;
20832;SDS011;56075;51.264;7.150;2022-10-20T08:18:30;10.02;;;4.88;;
20832;SDS011;56075;51.264;7.150;2022-10-20T08:21:05;9.75;;;5.07;;
20832;SDS011;56075;51.264;7.150;2022-10-20T08:23:42;12.40;;;4.78;;
20832;SDS011;56075;51.264;7.150;2022-10-20T08:26:16;9.55;;;5.07;;
20832;SDS011;56075;51.264;7.150;2022-10-20T08:28:51;10.93;;;4.50;;
20832;SDS011;56075;51.264;7.150;2022-10-20T08:31:23;8.25;;;4.40;;
20832;SDS011;56075;51.264;7.150;2022-10-20T08:33:55;8.20;;;4.60;;
20832;SDS011;56075;51.264;7.150;2022-10-20T08:36:26;7.93;;;4.40;;
20832;SDS011;56075;51.264;7.150;2022-10-20T08:38:58;9.32;;;4.70;;
20832;SDS011;56075;51.264;7.150;2022-10-20T08:41:33;10.35;;;4.57;;
20832;SDS011;56075;51.264;7.150;2022-10-20T08:44:10;11.43;;;4.85;;
20832;SDS011;56075;51.264;7.150;2022-10-20T08:46:56;9.20;;;4.63;;
20832;SDS011;56075;51.264;7.150;2022-10-20T08:49:32;8.75;;;4.70;;
20832;SDS011;56075;51.264;7.150;2022-10-20T08:52:08;9.13;;;4.60;;
20832;SDS011;56075;51.264;7.150;2022-10-20T08:54:42;10.73;;;5.90;;
20832;SDS011;56075;51.264;7.150;2022-10-20T08:57:22;8.30;;;4.45;;
20832;SDS011;56075;51.264;7.150;2022-10-20T09:00:00;8.73;;;4.97;;
20832;SDS011;56075;51.264;7.150;2022-10-20T09:02:41;12.63;;;6.65;;
20832;SDS011;56075;51.264;7.150;2022-10-20T09:05:13;10.07;;;4.75;;
20832;SDS011;56075;51.264;7.150;2022-10-20T09:07:46;12.70;;;4.95;;
20832;SDS011;56075;51.264;7.150;2022-10-20T09:13:27;9.82;;;4.80;;
20832;SDS011;56075;51.264;7.150;2022-10-20T09:15:59;7.28;;;4.82;;
20832;SDS011;56075;51.264;7.150;2022-10-20T09:18:34;10.27;;;4.38;;
20832;SDS011;56075;51.264;7.150;2022-10-20T09:21:07;7.70;;;4.20;;
20832;SDS011;56075;51.264;7.150;2022-10-20T09:23:55;9.23;;;4.70;;
20832;SDS011;56075;51.264;7.150;2022-10-20T09:26:39;9.88;;;4.32;;
20832;SDS011;56075;51.264;7.150;2022-10-20T09:29:17;8.10;;;4.63;;
20832;SDS011;56075;51.264;7.150;2022-10-20T09:31:51;13.20;;;4.95;;
20832;SDS011;56075;51.264;7.150;2022-10-20T09:37:03;9.27;;;4.70;;
20832;SDS011;56075;51.264;7.150;2022-10-20T09:39:53;6.88;;;4.35;;
20832;SDS011;56075;51.264;7.150;2022-10-20T09:42:28;8.30;;;4.35;;
20832;SDS011;56075;51.264;7.150;2022-10-20T09:45:07;11.10;;;4.97;;
20832;SDS011;56075;51.264;7.150;2022-10-20T09:48:02;9.35;;;4.95;;
20832;SDS011;56075;51.264;7.150;2022-10-20T09:50:45;8.50;;;4.68;;
20832;SDS011;56075;51.264;7.150;2022-10-20T09:53:21;9.02;;;4.63;;
20832;SDS011;56075;51.264;7.150;2022-10-20T09:56:05;10.70;;;4.22;;
20832;SDS011;56075;51.264;7.150;2022-10-20T09:58:37;11.57;;;4.95;;
20832;SDS011;56075;51.264;7.150;2022-10-20T10:01:12;7.60;;;4.47;;
20832;SDS011;56075;51.264;7.150;2022-10-20T10:03:46;12.80;;;5.20;;
20832;SDS011;56075;51.264;7.150;2022-10-20T10:09:00;8.73;;;4.55;;
20832;SDS011;56075;51.264;7.150;2022-10-20T10:11:33;8.70;;;4.55;;
20832;SDS011;56075;51.264;7.150;2022-10-20T10:14:05;11.32;;;4.70;;
20832;SDS011;56075;51.264;7.150;2022-10-20T10:16:51;10.63;;;4.88;;
20832;SDS011;56075;51.264;7.150;2022-10-20T10:19:24;9.00;;;5.13;;
20832;SDS011;56075;51.264;7.150;2022-10-20T10:21:59;9.27;;;5.15;;
20832;SDS011;56075;51.264;7.150;2022-10-20T10:24:39;11.88;;;5.25;;
20832;SDS011;56075;51.264;7.150;2022-10-20T10:27:55;9.27;;;4.90;;
20832;SDS011;56075;51.264;7.150;2022-10-20T10:30:24;11.15;;;5.22;;
20832;SDS011;56075;51.264;7.150;2022-10-20T10:32:58;9.35;;;5.35;;
20832;SDS011;56075;51.264;7.150;2022-10-20T10:35:36;9.98;;;5.53;;
20832;SDS011;56075;51.264;7.150;2022-10-20T10:38:10;11.55;;;5.38;;
20832;SDS011;56075;51.264;7.150;2022-10-20T10:43:49;11.68;;;5.85;;
20832;SDS011;56075;51.264;7.150;2022-10-20T10:46:31;12.82;;;6.03;;
20832;SDS011;56075;51.264;7.150;2022-10-20T10:49:32;14.93;;;6.35;;
20832;SDS011;56075;51.264;7.150;2022-10-20T10:55:05;10.80;;;5.93;;
20832;SDS011;56075;51.264;7.150;2022-10-20T10:58:04;9.82;;;5.80;;
20832;SDS011;56075;51.264;7.150;2022-10-20T11:00:59;7.95;;;4.93;;
20832;SDS011;56075;51.264;7.150;2022-10-20T11:04:12;14.85;;;5.65;;
20832;SDS011;56075;51.264;7.150;2022-10-20T11:06:48;13.80;;;6.22;;
20832;SDS011;56075;51.264;7.150;2022-10-20T11:09:54;11.85;;;5.72;;
20832;SDS011;56075;51.264;7.150;2022-10-20T11:26:21;12.40;;;5.68;;
20832;SDS011;56075;51.264;7.150;2022-10-20T11:28:54;11.85;;;5.88;;
20832;SDS011;56075;51.264;7.150;2022-10-20T11:31:28;13.55;;;6.20;;
20832;SDS011;56075;51.264;7.150;2022-10-20T11:34:11;11.00;;;5.72;;
20832;SDS011;56075;51.264;7.150;2022-10-20T11:36:45;12.52;;;5.88;;
20832;SDS011;56075;51.264;7.150;2022-10-20T11:39:43;29.98;;;16.42;;
20832;SDS011;56075;51.264;7.150;2022-10-20T11:42:22;14.05;;;6.30;;
20832;SDS011;56075;51.264;7.150;2022-10-20T11:45:21;13.50;;;6.13;;
20832;SDS011;56075;51.264;7.150;2022-10-20T11:48:09;12.95;;;6.60;;
20832;SDS011;56075;51.264;7.150;2022-10-20T11:50:48;13.23;;;6.60;;
20832;SDS011;56075;51.264;7.150;2022-10-20T11:56:31;14.40;;;7.18;;
20832;SDS011;56075;51.264;7.150;2022-10-20T12:14:20;14.68;;;7.90;;
20832;SDS011;56075;51.264;7.150;2022-10-20T12:22:51;15.95;;;8.23;;
20832;SDS011;56075;51.264;7.150;2022-10-20T12:33:37;17.83;;;8.20;;
20832;SDS011;56075;51.264;7.150;2022-10-20T12:38:50;16.90;;;7.75;;
20832;SDS011;56075;51.264;7.150;2022-10-20T12:41:41;13.90;;;7.95;;
20832;SDS011;56075;51.264;7.150;2022-10-20T12:44:41;16.60;;;8.45;;
20832;SDS011;56075;51.264;7.150;2022-10-20T12:47:23;15.30;;;8.30;;
20832;SDS011;56075;51.264;7.150;2022-10-20T12:50:07;15.05;;;7.95;;
20832;SDS011;56075;51.264;7.150;2022-10-20T12:56:07;18.23;;;8.57;;
20832;SDS011;56075;51.264;7.150;2022-10-20T13:20:59;14.43;;;7.50;;
20832;SDS011;56075;51.264;7.150;2022-10-20T13:23:38;15.10;;;8.02;;
20832;SDS011;56075;51.264;7.150;2022-10-20T13:28:51;14.38;;;7.95;;
20832;SDS011;56075;51.264;7.150;2022-10-20T13:34:14;15.02;;;7.40;;
20832;SDS011;56075;51.264;7.150;2022-10-20T13:37:06;13.60;;;6.95;;
20832;SDS011;56075;51.264;7.150;2022-10-20T13:45:20;14.10;;;7.53;;
20832;SDS011;56075;51.264;7.150;2022-10-20T13:51:00;12.43;;;7.43;;
20832;SDS011;56075;51.264;7.150;2022-10-20T13:53:36;18.83;;;9.50;;
20832;SDS011;56075;51.264;7.150;2022-10-20T14:01:51;14.02;;;7.00;;
20832;SDS011;56075;51.264;7.150;2022-10-20T14:04:29;14.82;;;7.40;;
20832;SDS011;56075;51.264;7.150;2022-10-20T14:07:01;12.07;;;7.35;;
20832;SDS011;56075;51.264;7.150;2022-10-20T14:09:38;15.68;;;6.95;;
20832;SDS011;56075;51.264;7.150;2022-10-20T14:12:11;10.30;;;6.13;;
20832;SDS011;56075;51.264;7.150;2022-10-20T14:14:48;10.98;;;5.82;;
20832;SDS011;56075;51.264;7.150;2022-10-20T14:17:21;10.70;;;5.53;;
20832;SDS011;56075;51.264;7.150;2022-10-20T14:22:51;14.73;;;5.40;;
20832;SDS011;56075;51.264;7.150;2022-10-20T14:25:24;11.40;;;6.03;;
20832;SDS011;56075;51.264;7.150;2022-10-20T14:27:56;12.32;;;6.28;;
20832;SDS011;56075;51.264;7.150;2022-10-20T14:30:28;10.23;;;5.30;;
20832;SDS011;56075;51.264;7.150;2022-10-20T14:33:00;10.93;;;5.40;;
20832;SDS011;56075;51.264;7.150;2022-10-20T14:35:38;10.43;;;5.65;;
20832;SDS011;56075;51.264;7.150;2022-10-20T14:38:17;10.45;;;5.88;;
20832;SDS011;56075;51.264;7.150;2022-10-20T14:41:00;10.65;;;5.30;;
20832;SDS011;56075;51.264;7.150;2022-10-20T14:43:39;10.60;;;5.63;;
20832;SDS011;56075;51.264;7.150;2022-10-20T14:46:14;14.23;;;5.38;;
20832;SDS011;56075;51.264;7.150;2022-10-20T14:48:58;12.27;;;5.03;;
20832;SDS011;56075;51.264;7.150;2022-10-20T14:51:35;14.15;;;5.95;;
20832;SDS011;56075;51.264;7.150;2022-10-20T14:59:59;10.50;;;5.35;;
20832;SDS011;56075;51.264;7.150;2022-10-20T15:02:39;15.50;;;8.57;;
20832;SDS011;56075;51.264;7.150;2022-10-20T15:08:15;11.52;;;6.00;;
20832;SDS011;56075;51.264;7.150;2022-10-20T15:10:55;12.98;;;6.03;;
20832;SDS011;56075;51.264;7.150;2022-10-20T15:13:28;11.95;;;6.35;;
20832;SDS011;56075;51.264;7.150;2022-10-20T15:16:02;12.27;;;6.43;;
20832;SDS011;56075;51.264;7.150;2022-10-20T15:18:34;16.35;;;7.28;;
20832;SDS011;56075;51.264;7.150;2022-10-20T15:21:05;13.70;;;6.68;;
20832;SDS011;56075;51.264;7.150;2022-10-20T15:23:37;11.85;;;7.07;;
20832;SDS011;56075;51.264;7.150;2022-10-20T15:26:09;14.93;;;7.50;;
20832;SDS011;56075;51.264;7.150;2022-10-20T15:28:46;14.60;;;7.40;;
20832;SDS011;56075;51.264;7.150;2022-10-20T15:31:23;17.02;;;7.50;;
20832;SDS011;56075;51.264;7.150;2022-10-20T15:33:56;13.82;;;7.35;;
20832;SDS011;56075;51.264;7.150;2022-10-20T15:36:28;19.80;;;8.43;;
20832;SDS011;56075;51.264;7.150;2022-10-20T15:39:05;16.42;;;7.65;;
20832;SDS011;56075;51.264;7.150;2022-10-20T15:41:37;14.75;;;8.00;;
20832;SDS011;56075;51.264;7.150;2022-10-20T15:46:43;16.80;;;7.85;;
20832;SDS011;56075;51.264;7.150;2022-10-20T15:49:15;17.05;;;8.48;;
20832;SDS011;56075;51.264;7.150;2022-10-20T15:51:46;19.02;;;9.05;;
20832;SDS011;56075;51.264;7.150;2022-10-20T15:54:20;18.15;;;8.00;;
20832;SDS011;56075;51.264;7.150;2022-10-20T15:56:52;18.00;;;7.60;;
20832;SDS011;56075;51.264;7.150;2022-10-20T15:59:23;18.90;;;8.23;;
20832;SDS011;56075;51.264;7.150;2022-10-20T16:01:54;16.90;;;7.72;;
20832;SDS011;56075;51.264;7.150;2022-10-20T16:04:26;19.45;;;7.78;;
20832;SDS011;56075;51.264;7.150;2022-10-20T16:06:57;15.93;;;7.50;;
20832;SDS011;56075;51.264;7.150;2022-10-20T16:09:28;17.38;;;7.55;;
20832;SDS011;56075;51.264;7.150;2022-10-20T16:11:59;14.25;;;7.38;;
20832;SDS011;56075;51.264;7.150;2022-10-20T16:14:31;14.32;;;7.57;;
20832;SDS011;56075;51.264;7.150;2022-10-20T16:17:03;14.98;;;7.35;;
20832;SDS011;56075;51.264;7.150;2022-10-20T16:19:34;17.40;;;7.68;;
20832;SDS011;56075;51.264;7.150;2022-10-20T16:22:05;15.93;;;8.05;;
20832;SDS011;56075;51.264;7.150;2022-10-20T16:24:36;16.23;;;8.07;;
20832;SDS011;56075;51.264;7.150;2022-10-20T16:27:07;17.35;;;8.65;;
20832;SDS011;56075;51.264;7.150;2022-10-20T16:29:38;17.50;;;8.05;;
20832;SDS011;56075;51.264;7.150;2022-10-20T16:32:10;19.33;;;9.07;;
20832;SDS011;56075;51.264;7.150;2022-10-20T16:34:41;23.73;;;11.52;;
20832;SDS011;56075;51.264;7.150;2022-10-20T16:37:12;22.60;;;11.25;;
20832;SDS011;56075;51.264;7.150;2022-10-20T16:39:43;19.17;;;9.32;;
20832;SDS011;56075;51.264;7.150;2022-10-20T16:42:14;17.65;;;8.65;;
20832;SDS011;56075;51.264;7.150;2022-10-20T16:44:45;17.58;;;9.18;;
20832;SDS011;56075;51.264;7.150;2022-10-20T16:47:17;18.85;;;8.43;;
20832;SDS011;56075;51.264;7.150;2022-10-20T16:49:48;17.83;;;8.50;;
20832;SDS011;56075;51.264;7.150;2022-10-20T16:52:20;20.48;;;8.65;;
20832;SDS011;56075;51.264;7.150;2022-10-20T16:54:51;16.85;;;8.43;;
20832;SDS011;56075;51.264;7.150;2022-10-20T16:57:22;18.73;;;8.95;;
20832;SDS011;56075;51.264;7.150;2022-10-20T16:59:53;16.52;;;8.82;;
20832;SDS011;56075;51.264;7.150;2022-10-20T17:02:25;18.13;;;9.00;;
20832;SDS011;56075;51.264;7.150;2022-10-20T17:04:56;23.92;;;8.73;;
20832;SDS011;56075;51.264;7.150;2022-10-20T17:07:27;20.48;;;8.45;;
20832;SDS011;56075;51.264;7.150;2022-10-20T17:09:58;20.55;;;9.18;;
20832;SDS011;56075;51.264;7.150;2022-10-20T17:12:29;19.73;;;8.57;;
20832;SDS011;56075;51.264;7.150;2022-10-20T17:15:00;16.45;;;8.57;;
20832;SDS011;56075;51.264;7.150;2022-10-20T17:17:32;13.48;;;8.15;;
20832;SDS011;56075;51.264;7.150;2022-10-20T17:20:03;20.50;;;8.38;;
20832;SDS011;56075;51.264;7.150;2022-10-20T17:22:35;16.83;;;8.60;;
20832;SDS011;56075;51.264;7.150;2022-10-20T17:25:07;18.33;;;8.30;;
20832;SDS011;56075;51.264;7.150;2022-10-20T17:27:38;20.35;;;8.02;;
20832;SDS011;56075;51.264;7.150;2022-10-20T17:30:10;17.30;;;8.63;;
20832;SDS011;56075;51.264;7.150;2022-10-20T17:32:41;17.13;;;8.63;;
20832;SDS011;56075;51.264;7.150;2022-10-20T17:35:12;17.23;;;8.82;;
20832;SDS011;56075;51.264;7.150;2022-10-20T17:37:44;18.50;;;8.93;;
20832;SDS011;56075;51.264;7.150;2022-10-20T17:40:15;16.55;;;9.00;;
20832;SDS011;56075;51.264;7.150;2022-10-20T17:42:46;23.42;;;8.27;;
20832;SDS011;56075;51.264;7.150;2022-10-20T17:45:17;21.08;;;8.88;;
20832;SDS011;56075;51.264;7.150;2022-10-20T17:47:48;16.50;;;8.05;;
20832;SDS011;56075;51.264;7.150;2022-10-20T17:50:20;17.20;;;8.27;;